Time;durP1;ratioP1;P1;durP2;ratioP2;P2;SDS_P1;SDS_P2;PMS_P1;PMS_P2;Temp;Humidity;BMP_temperature;BMP_pressure;BME280_temperature;BME280_humidity;BME280_pressure;Samples;Min_cycle;Max_cycle;Signal;HPM_P1;HPM_P2
2021/03/06 00:00:51;;;;;;;5.90;5.30;;;5.80;45.50;;;;;;5090617;28;20676;-51
2021/03/06 00:03:18;;;;;;;6.03;4.47;;;5.90;45.60;;;;;;5090266;28;20684;-53
2021/03/06 00:05:45;;;;;;;6.80;6.10;;;5.80;45.70;;;;;;5090323;28;20224;-53
2021/03/06 00:08:11;;;;;;;6.20;5.60;;;5.80;45.70;;;;;;5088486;28;20255;-53
2021/03/06 00:10:38;;;;;;;10.20;7.00;;;5.80;45.70;;;;;;5091002;28;20624;-53
2021/03/06 00:13:05;;;;;;;6.45;5.75;;;5.80;45.80;;;;;;5091195;28;20708;-53
2021/03/06 00:15:32;;;;;;;6.53;5.95;;;5.70;45.90;;;;;;5090334;28;20209;-52
2021/03/06 00:17:59;;;;;;;6.90;6.20;;;5.70;46.00;;;;;;5091071;28;20258;-52
2021/03/06 00:20:26;;;;;;;8.05;6.80;;;5.70;46.10;;;;;;5091189;28;20209;-52
2021/03/06 00:22:53;;;;;;;7.90;5.60;;;5.60;46.00;;;;;;5086306;28;20579;-53
2021/03/06 00:25:20;;;;;;;16.83;6.82;;;5.60;46.00;;;;;;5078613;28;20301;-51
2021/03/06 00:27:47;;;;;;;7.72;6.93;;;5.50;46.10;;;;;;5090005;28;20699;-53
2021/03/06 00:30:15;;;;;;;7.03;6.32;;;5.60;46.50;;;;;;5090326;28;20205;-52
2021/03/06 00:32:42;;;;;;;7.97;6.38;;;5.50;46.50;;;;;;5088514;28;20202;-51
2021/03/06 00:35:11;;;;;;;7.63;6.63;;;5.60;46.70;;;;;;5071219;28;20201;-53
2021/03/06 00:37:37;;;;;;;6.85;6.22;;;5.50;46.60;;;;;;5078377;28;20194;-53
2021/03/06 00:40:05;;;;;;;9.10;6.45;;;5.50;47.00;;;;;;5091758;28;20324;-51
2021/03/06 00:42:31;;;;;;;9.25;7.80;;;5.50;47.10;;;;;;5086912;28;20740;-52
2021/03/06 00:44:58;;;;;;;8.23;7.35;;;5.40;47.10;;;;;;5071213;28;20206;-52
2021/03/06 00:47:25;;;;;;;8.10;7.00;;;5.40;47.20;;;;;;5082691;28;20229;-52
2021/03/06 00:49:52;;;;;;;9.27;7.83;;;5.40;47.40;;;;;;5090537;28;20201;-52
2021/03/06 00:52:19;;;;;;;9.23;8.20;;;5.40;47.60;;;;;;5091201;28;20631;-51
2021/03/06 00:54:46;;;;;;;7.50;6.80;;;5.40;47.70;;;;;;5090449;28;20225;-52
2021/03/06 00:57:13;;;;;;;8.95;7.45;;;5.40;47.80;;;;;;5084554;28;20260;-52
2021/03/06 00:59:39;;;;;;;17.50;9.52;;;5.40;48.00;;;;;;5089832;28;20214;-53
2021/03/06 01:02:06;;;;;;;9.25;7.43;;;5.40;47.80;;;;;;5090446;28;20205;-53
2021/03/06 01:04:33;;;;;;;9.85;7.00;;;5.40;47.70;;;;;;5090683;28;20275;-52
2021/03/06 01:07:00;;;;;;;8.48;7.57;;;5.40;47.80;;;;;;5089968;28;20295;-52
2021/03/06 01:09:27;;;;;;;9.32;7.00;;;5.40;47.90;;;;;;5087762;28;20209;-53
2021/03/06 01:11:54;;;;;;;6.82;6.05;;;5.30;47.70;;;;;;5083379;28;20198;-53
2021/03/06 01:14:21;;;;;;;6.97;6.38;;;5.30;47.60;;;;;;5083691;28;20267;-51
2021/03/06 01:16:48;;;;;;;8.60;7.70;;;5.30;47.40;;;;;;5089231;28;20204;-53
2021/03/06 01:19:14;;;;;;;9.05;7.05;;;5.30;47.50;;;;;;5087715;28;20262;-53
2021/03/06 01:21:41;;;;;;;11.60;8.32;;;5.30;47.40;;;;;;5086386;28;20948;-52
2021/03/06 01:24:09;;;;;;;8.15;7.45;;;5.20;47.60;;;;;;5083947;28;20274;-52
2021/03/06 01:26:36;;;;;;;7.85;7.10;;;5.20;47.80;;;;;;5089136;28;20209;-52
2021/03/06 01:29:03;;;;;;;8.40;6.90;;;5.10;47.90;;;;;;5089516;28;20714;-53
2021/03/06 01:31:30;;;;;;;9.65;6.95;;;5.10;48.00;;;;;;5089112;28;20257;-52
2021/03/06 01:33:57;;;;;;;8.00;7.30;;;5.10;48.10;;;;;;5081301;28;20222;-52
2021/03/06 01:36:23;;;;;;;8.65;7.32;;;5.10;47.90;;;;;;5084250;28;20232;-51
2021/03/06 01:38:50;;;;;;;10.85;8.63;;;5.10;48.20;;;;;;5085233;28;20195;-52
2021/03/06 01:41:17;;;;;;;7.65;6.70;;;5.10;48.20;;;;;;5069524;28;20678;-52
2021/03/06 01:43:44;;;;;;;7.88;6.97;;;5.10;48.30;;;;;;5076910;28;20653;-50
2021/03/06 01:46:11;;;;;;;8.73;6.72;;;5.00;48.30;;;;;;5089162;28;20713;-53
2021/03/06 01:48:38;;;;;;;7.32;6.60;;;5.00;48.40;;;;;;5089242;28;20256;-51
2021/03/06 01:51:05;;;;;;;9.93;7.38;;;5.00;48.60;;;;;;5089550;28;20198;-53
2021/03/06 01:53:32;;;;;;;10.88;8.23;;;5.00;48.60;;;;;;5089499;28;20237;-53
2021/03/06 01:55:58;;;;;;;7.85;6.43;;;4.90;48.60;;;;;;5080964;28;20201;-52
2021/03/06 01:58:25;;;;;;;8.00;7.20;;;4.80;48.80;;;;;;5084615;28;20200;-53
2021/03/06 02:00:53;;;;;;;8.60;6.55;;;4.80;49.10;;;;;;5089891;28;20220;-52
2021/03/06 02:03:19;;;;;;;7.10;6.50;;;4.80;50.40;;;;;;5088760;28;20221;-53
2021/03/06 02:05:46;;;;;;;7.35;5.90;;;4.80;50.40;;;;;;5088771;28;20595;-51
2021/03/06 02:08:13;;;;;;;7.93;7.13;;;4.70;50.00;;;;;;5089215;28;20618;-52
2021/03/06 02:10:42;;;;;;;7.97;6.90;;;4.70;49.60;;;;;;5077965;28;20524;-52
2021/03/06 02:13:28;;;;;;;7.93;7.07;;;4.60;49.30;;;;;;5076590;28;20273;-52
2021/03/06 02:16:05;;;;;;;8.88;7.07;;;4.60;49.30;;;;;;5088913;28;20682;-52
2021/03/06 02:18:35;;;;;;;8.75;7.50;;;4.60;49.40;;;;;;5089412;28;20552;-52
2021/03/06 02:21:03;;;;;;;8.45;6.25;;;4.60;49.40;;;;;;5089519;28;20250;-52
2021/03/06 02:24:03;;;;;;;8.63;6.68;;;4.60;49.50;;;;;;5088033;28;20227;-52
2021/03/06 02:26:36;;;;;;;8.38;7.25;;;4.60;49.70;;;;;;5089470;28;20201;-51
2021/03/06 02:29:16;;;;;;;7.85;6.07;;;4.60;50.10;;;;;;5089450;28;20544;-52
2021/03/06 02:31:44;;;;;;;9.10;6.60;;;4.60;49.60;;;;;;5092958;28;20695;-52
2021/03/06 02:34:11;;;;;;;8.73;7.22;;;4.60;49.70;;;;;;5092389;28;20713;-52
2021/03/06 02:36:41;;;;;;;9.10;7.72;;;4.60;49.70;;;;;;5092739;28;20273;-52
2021/03/06 02:39:10;;;;;;;8.30;7.47;;;4.70;49.90;;;;;;5091919;28;20663;-52
2021/03/06 02:41:37;;;;;;;7.25;6.55;;;4.60;49.90;;;;;;5085476;28;20206;-52
2021/03/06 02:44:04;;;;;;;7.18;6.47;;;4.60;49.90;;;;;;5092409;28;20751;-53
2021/03/06 02:46:31;;;;;;;7.57;6.78;;;4.60;49.70;;;;;;5092469;28;20197;-52
2021/03/06 02:48:59;;;;;;;6.72;5.78;;;4.60;49.70;;;;;;5092438;28;20201;-52
2021/03/06 02:51:25;;;;;;;7.25;5.40;;;4.50;49.50;;;;;;5089486;28;20205;-52
2021/03/06 02:53:52;;;;;;;8.98;8.07;;;4.40;49.90;;;;;;5092398;28;20225;-52
2021/03/06 02:56:19;;;;;;;7.47;6.43;;;4.30;49.80;;;;;;5092785;28;20209;-52
2021/03/06 02:59:06;;;;;;;7.93;7.15;;;4.30;49.90;;;;;;5085184;28;20207;-53
2021/03/06 03:01:38;;;;;;;8.35;6.72;;;4.20;50.10;;;;;;5071617;28;20246;-52
2021/03/06 03:04:08;;;;;;;7.78;6.53;;;4.20;50.20;;;;;;5072354;28;20279;-51
2021/03/06 03:06:35;;;;;;;7.45;6.75;;;4.30;50.50;;;;;;5072282;28;20254;-53
2021/03/06 03:09:07;;;;;;;7.80;6.88;;;4.30;50.60;;;;;;5083583;28;20635;-53
2021/03/06 03:11:41;;;;;;;8.40;6.63;;;4.30;50.50;;;;;;5091826;28;20200;-52
2021/03/06 03:14:08;;;;;;;8.32;7.05;;;4.30;50.60;;;;;;5091650;28;20247;-53
2021/03/06 03:16:36;;;;;;;6.18;5.65;;;4.30;50.20;;;;;;5076015;28;20190;-52
2021/03/06 03:19:04;;;;;;;5.80;5.30;;;4.30;50.10;;;;;;5091330;28;20583;-53
2021/03/06 03:21:33;;;;;;;10.55;7.18;;;4.30;50.30;;;;;;5091671;28;20332;-52
2021/03/06 03:24:02;;;;;;;7.05;5.13;;;4.40;50.20;;;;;;5090087;28;20282;-52
2021/03/06 03:26:29;;;;;;;7.25;5.93;;;4.40;50.20;;;;;;5092153;28;20204;-51
2021/03/06 03:28:56;;;;;;;8.27;6.00;;;4.40;50.20;;;;;;5076930;28;20543;-51
2021/03/06 03:31:23;;;;;;;6.50;5.30;;;4.50;50.10;;;;;;5070652;28;20660;-51
2021/03/06 03:33:50;;;;;;;9.15;5.72;;;4.40;50.10;;;;;;5091628;28;20251;-50
2021/03/06 03:36:17;;;;;;;7.70;6.97;;;4.40;50.10;;;;;;5090923;28;20759;-51
2021/03/06 03:38:45;;;;;;;9.02;6.72;;;4.50;50.10;;;;;;5090611;28;20280;-52
2021/03/06 03:41:12;;;;;;;8.82;6.97;;;4.40;50.30;;;;;;5090390;28;20197;-52
2021/03/06 03:43:39;;;;;;;8.63;7.28;;;4.40;50.30;;;;;;5090873;28;20216;-52
2021/03/06 03:46:05;;;;;;;8.32;7.28;;;4.40;50.30;;;;;;5085856;28;20238;-53
2021/03/06 03:48:32;;;;;;;7.57;6.88;;;4.30;50.30;;;;;;5090758;28;20403;-52
2021/03/06 03:51:01;;;;;;;9.10;6.15;;;4.40;50.60;;;;;;5090969;28;20221;-52
2021/03/06 03:53:28;;;;;;;10.85;7.72;;;4.30;50.70;;;;;;5093409;28;20285;-53
2021/03/06 03:55:55;;;;;;;8.20;7.40;;;4.30;50.70;;;;;;5090937;28;20259;-53
2021/03/06 03:58:22;;;;;;;11.15;8.63;;;4.20;50.90;;;;;;5090264;28;20195;-53
2021/03/06 04:00:55;;;;;;;8.60;7.65;;;4.20;51.70;;;;;;5073330;28;20257;-52
2021/03/06 04:03:22;;;;;;;8.60;7.15;;;4.20;51.30;;;;;;5082947;28;20237;-52
2021/03/06 04:05:49;;;;;;;9.63;7.10;;;4.20;51.40;;;;;;5090683;28;20204;-51
2021/03/06 04:08:15;;;;;;;10.00;7.43;;;4.10;51.40;;;;;;5090324;28;20349;-51
2021/03/06 04:10:42;;;;;;;8.35;6.30;;;4.10;51.60;;;;;;5085597;28;20223;-51
2021/03/06 04:13:10;;;;;;;13.20;8.57;;;4.10;51.80;;;;;;5090180;28;20272;-51
2021/03/06 04:15:37;;;;;;;8.07;7.10;;;4.10;51.90;;;;;;5091023;28;20226;-50
2021/03/06 04:18:04;;;;;;;7.57;6.85;;;4.00;51.90;;;;;;5090306;28;20236;-50
2021/03/06 04:20:31;;;;;;;7.70;7.00;;;4.00;52.00;;;;;;5090095;28;20205;-51
2021/03/06 04:22:57;;;;;;;9.02;7.18;;;4.00;52.00;;;;;;5090069;28;20245;-51
2021/03/06 04:25:24;;;;;;;9.25;6.70;;;4.00;52.00;;;;;;5090436;28;20593;-52
2021/03/06 04:27:51;;;;;;;8.27;7.38;;;4.00;52.10;;;;;;5088719;28;20206;-52
2021/03/06 04:30:20;;;;;;;7.63;6.93;;;4.00;52.20;;;;;;5090042;28;20215;-52
2021/03/06 04:32:46;;;;;;;8.80;7.40;;;4.00;52.20;;;;;;5090112;28;20255;-51
2021/03/06 04:35:13;;;;;;;10.63;7.50;;;4.00;52.30;;;;;;5090327;28;20251;-53
2021/03/06 04:37:40;;;;;;;8.43;6.45;;;3.90;52.30;;;;;;5090150;28;20207;-51
2021/03/06 04:40:08;;;;;;;8.00;7.30;;;3.90;52.30;;;;;;5087203;28;20275;-52
2021/03/06 04:42:34;;;;;;;7.57;6.88;;;3.90;52.20;;;;;;5081786;28;20282;-52
2021/03/06 04:45:01;;;;;;;10.98;7.65;;;3.90;52.10;;;;;;5069849;28;20673;-51
2021/03/06 04:47:29;;;;;;;7.30;5.78;;;3.90;52.20;;;;;;5085278;28;20321;-51
2021/03/06 04:49:56;;;;;;;8.05;7.28;;;3.90;52.10;;;;;;5090252;28;20253;-52
2021/03/06 04:52:23;;;;;;;8.93;7.35;;;4.00;52.20;;;;;;5089992;28;20226;-53
2021/03/06 04:54:49;;;;;;;10.23;6.85;;;3.90;52.10;;;;;;5089091;28;20216;-52
2021/03/06 04:57:16;;;;;;;9.68;6.95;;;3.90;52.10;;;;;;5089845;28;20198;-53
2021/03/06 04:59:43;;;;;;;8.05;6.82;;;3.90;52.00;;;;;;5084258;28;20566;-53
2021/03/06 05:02:10;;;;;;;7.80;6.93;;;3.90;52.20;;;;;;5075686;28;20199;-52
2021/03/06 05:04:37;;;;;;;8.25;7.45;;;3.90;52.10;;;;;;5089780;28;20579;-52
2021/03/06 05:07:04;;;;;;;7.40;6.25;;;3.90;52.10;;;;;;5088556;28;20193;-51
2021/03/06 05:09:31;;;;;;;7.97;7.00;;;3.90;52.10;;;;;;5089070;28;20238;-51
2021/03/06 05:11:58;;;;;;;7.40;6.70;;;3.90;52.30;;;;;;5089168;28;20242;-52
2021/03/06 05:14:24;;;;;;;10.25;6.57;;;3.80;52.40;;;;;;5077640;28;20224;-61
2021/03/06 05:16:51;;;;;;;7.38;6.65;;;3.80;52.50;;;;;;5081759;28;20196;-52
2021/03/06 05:19:18;;;;;;;7.57;6.88;;;3.70;52.60;;;;;;5069293;28;20263;-51
2021/03/06 05:21:45;;;;;;;9.35;7.43;;;3.70;52.80;;;;;;5078483;28;20230;-51
2021/03/06 05:24:13;;;;;;;9.05;7.25;;;3.70;52.90;;;;;;5089160;28;20243;-51
2021/03/06 05:26:39;;;;;;;7.32;6.47;;;3.70;52.90;;;;;;5089174;28;20708;-51
2021/03/06 05:29:06;;;;;;;7.70;6.75;;;3.70;53.10;;;;;;5088885;28;20220;-51
2021/03/06 05:31:33;;;;;;;6.93;6.28;;;3.70;53.00;;;;;;5089342;28;20531;-51
2021/03/06 05:33:59;;;;;;;8.35;6.65;;;3.70;52.90;;;;;;5089289;28;20253;-52
2021/03/06 05:36:26;;;;;;;8.30;6.15;;;3.70;53.10;;;;;;5088435;28;20191;-52
2021/03/06 05:38:54;;;;;;;8.82;7.50;;;3.60;53.40;;;;;;5087689;28;20199;-51
2021/03/06 05:41:21;;;;;;;8.63;7.53;;;3.60;53.40;;;;;;5088991;28;20204;-51
2021/03/06 05:43:47;;;;;;;11.65;7.57;;;3.60;53.40;;;;;;5088485;28;20228;-52
2021/03/06 05:46:14;;;;;;;7.68;6.93;;;3.70;53.40;;;;;;5089132;28;20203;-52
2021/03/06 05:48:41;;;;;;;7.93;6.97;;;3.70;53.20;;;;;;5089017;28;20273;-50
2021/03/06 05:51:08;;;;;;;8.07;7.28;;;3.70;53.40;;;;;;5089151;28;20680;-51
2021/03/06 05:53:35;;;;;;;8.65;6.60;;;3.60;53.30;;;;;;5088832;28;20263;-52
2021/03/06 05:56:02;;;;;;;7.75;6.95;;;3.60;53.50;;;;;;5085271;28;20249;-52
2021/03/06 05:58:30;;;;;;;7.30;6.10;;;3.60;53.60;;;;;;5089192;28;20196;-52
2021/03/06 06:00:56;;;;;;;7.70;6.78;;;3.50;53.70;;;;;;5088868;28;20261;-53
2021/03/06 06:03:23;;;;;;;6.68;6.07;;;3.50;53.90;;;;;;5089425;28;20249;-51
2021/03/06 06:05:53;;;;;;;7.60;6.20;;;3.50;53.90;;;;;;5092275;28;20214;-51
2021/03/06 06:08:20;;;;;;;11.68;7.72;;;3.50;54.00;;;;;;5093009;28;20273;-50
2021/03/06 06:10:47;;;;;;;7.47;5.40;;;3.40;54.00;;;;;;5092609;28;20675;-50
2021/03/06 06:13:14;;;;;;;7.07;6.20;;;3.40;53.90;;;;;;5093002;28;20264;-50
2021/03/06 06:15:41;;;;;;;7.97;7.18;;;3.40;53.90;;;;;;5092343;28;20381;-51
2021/03/06 06:18:08;;;;;;;7.75;7.00;;;3.50;54.00;;;;;;5092813;28;20195;-50
2021/03/06 06:20:37;;;;;;;7.00;5.43;;;3.50;54.00;;;;;;5093068;28;20195;-50
2021/03/06 06:23:08;;;;;;;10.10;7.28;;;3.40;54.00;;;;;;5092002;28;20230;-52
2021/03/06 06:25:35;;;;;;;8.60;6.38;;;3.50;54.00;;;;;;5092976;28;20200;-50
2021/03/06 06:28:02;;;;;;;8.55;6.55;;;3.50;54.30;;;;;;5092554;28;20601;-51
2021/03/06 06:30:30;;;;;;;8.57;6.80;;;3.50;54.30;;;;;;5092715;28;20212;-51
2021/03/06 06:32:57;;;;;;;9.02;6.82;;;3.40;54.40;;;;;;5092340;28;20210;-51
2021/03/06 06:35:24;;;;;;;11.73;6.85;;;3.40;54.70;;;;;;5092498;28;20289;-51
2021/03/06 06:38:01;;;;;;;9.27;6.75;;;3.40;55.00;;;;;;5092353;28;20244;-51
2021/03/06 06:40:28;;;;;;;6.90;5.53;;;3.40;55.10;;;;;;5091889;28;20256;-50
2021/03/06 06:42:55;;;;;;;8.18;5.82;;;3.40;55.30;;;;;;5092173;28;20224;-50
2021/03/06 06:45:23;;;;;;;8.68;6.35;;;3.40;55.10;;;;;;5092305;28;20214;-51
2021/03/06 06:47:51;;;;;;;7.38;6.40;;;3.50;55.10;;;;;;5091718;28;20224;-52
2021/03/06 06:50:28;;;;;;;6.82;6.13;;;3.50;55.20;;;;;;5091764;28;20265;-53
2021/03/06 06:52:55;;;;;;;6.88;6.10;;;3.50;55.30;;;;;;5091910;28;20295;-52
2021/03/06 06:55:22;;;;;;;7.38;6.60;;;3.50;55.10;;;;;;5092219;28;20255;-53
2021/03/06 06:57:49;;;;;;;9.52;6.85;;;3.60;55.20;;;;;;5091729;28;20212;-51
2021/03/06 07:00:17;;;;;;;7.10;6.00;;;3.60;55.40;;;;;;5087409;28;20218;-50
2021/03/06 07:02:54;;;;;;;6.72;5.97;;;3.60;55.20;;;;;;5091152;28;20280;-50
2021/03/06 07:05:28;;;;;;;7.90;7.03;;;3.70;55.40;;;;;;5092467;28;20200;-51
2021/03/06 07:07:55;;;;;;;7.28;6.57;;;3.70;55.80;;;;;;5092154;28;20225;-51
2021/03/06 07:10:21;;;;;;;7.18;5.95;;;3.70;55.30;;;;;;5091887;28;20222;-53
2021/03/06 07:12:56;;;;;;;10.90;7.13;;;3.80;55.30;;;;;;5092177;28;20839;-50
2021/03/06 07:15:23;;;;;;;8.50;5.88;;;3.80;55.40;;;;;;5091647;28;20215;-52
2021/03/06 07:17:51;;;;;;;7.45;5.93;;;3.90;55.40;;;;;;5089835;28;20270;-53
2021/03/06 07:20:29;;;;;;;7.32;6.63;;;4.10;55.80;;;;;;5091758;28;20264;-53
2021/03/06 07:22:56;;;;;;;10.95;6.18;;;4.50;55.00;;;;;;5091034;28;20301;-52
2021/03/06 07:25:23;;;;;;;8.63;6.17;;;4.80;54.40;;;;;;5091813;28;20625;-52
2021/03/06 07:27:50;;;;;;;9.53;7.07;;;5.10;53.70;;;;;;5091205;28;20701;-51
2021/03/06 07:30:18;;;;;;;5.40;4.60;;;5.50;52.90;;;;;;5092047;28;20636;-55
2021/03/06 07:32:46;;;;;;;12.07;6.67;;;5.80;52.20;;;;;;5091819;28;21199;-52
2021/03/06 07:35:14;;;;;;;10.03;6.17;;;6.10;51.00;;;;;;5091172;28;20984;-54
2021/03/06 07:37:42;;;;;;;8.90;7.57;;;6.30;50.00;;;;;;5091837;28;20627;-50
2021/03/06 07:40:10;;;;;;;9.00;7.10;;;6.30;49.40;;;;;;5091482;28;20634;-52
2021/03/06 07:42:41;;;;;;;7.60;4.97;;;6.30;49.20;;;;;;5091797;28;20632;-53
2021/03/06 07:45:09;;;;;;;6.40;5.80;;;6.40;49.20;;;;;;5090711;28;20701;-52
2021/03/06 07:47:39;;;;;;;8.20;5.87;;;6.40;49.00;;;;;;5092894;28;20638;-50
2021/03/06 07:50:07;;;;;;;6.50;5.50;;;6.50;48.80;;;;;;5095091;28;20972;-54
2021/03/06 07:52:36;;;;;;;6.67;5.00;;;6.60;48.50;;;;;;5090752;28;21046;-53
2021/03/06 07:55:04;;;;;;;6.23;5.40;;;6.80;48.40;;;;;;5091047;28;21158;-53
2021/03/06 07:57:31;;;;;;;8.93;5.70;;;6.90;47.90;;;;;;5091124;28;21229;-53
2021/03/06 07:59:57;;;;;;;5.77;4.27;;;6.90;47.80;;;;;;5090927;28;20691;-57
2021/03/06 08:02:34;;;;;;;5.50;5.03;;;6.80;48.30;;;;;;5091277;28;20675;-53
2021/03/06 08:05:01;;;;;;;5.03;4.07;;;6.90;48.40;;;;;;5096060;28;20639;-53
2021/03/06 08:07:42;;;;;;;4.87;4.23;;;6.90;47.90;;;;;;5096470;28;21059;-51
2021/03/06 08:10:10;;;;;;;20.23;5.20;;;7.00;47.60;;;;;;5079116;28;20766;-52
2021/03/06 08:12:37;;;;;;;7.30;4.67;;;7.10;47.60;;;;;;5082998;28;20627;-53
2021/03/06 08:15:37;;;;;;;5.20;4.20;;;7.20;46.90;;;;;;5088468;28;20620;-51
2021/03/06 08:18:04;;;;;;;7.47;5.40;;;7.40;46.70;;;;;;5027315;28;20689;-51
2021/03/06 08:20:32;;;;;;;5.50;5.00;;;7.60;46.30;;;;;;5027198;28;20630;-53
2021/03/06 08:23:21;;;;;;;6.60;6.00;;;7.80;46.00;;;;;;5046874;28;20665;-53
2021/03/06 08:26:24;;;;;;;8.80;5.00;;;8.20;45.60;;;;;;5068688;28;20625;-53
2021/03/06 08:28:53;;;;;;;5.60;4.70;;;8.50;45.10;;;;;;5083242;28;20643;-53
2021/03/06 08:31:38;;;;;;;4.77;4.23;;;8.80;44.10;;;;;;5090366;28;20624;-52
2021/03/06 08:34:27;;;;;;;4.60;4.10;;;9.00;43.60;;;;;;5090607;28;20827;-53
2021/03/06 08:37:08;;;;;;;7.70;5.80;;;9.30;42.70;;;;;;5090435;28;21025;-53
2021/03/06 08:39:35;;;;;;;5.17;4.67;;;9.50;41.80;;;;;;5087865;28;20636;-51
2021/03/06 08:42:02;;;;;;;9.03;5.80;;;9.70;41.30;;;;;;5079422;28;20665;-52
2021/03/06 08:44:30;;;;;;;4.97;3.80;;;9.90;41.30;;;;;;5075793;28;20733;-53
2021/03/06 08:46:56;;;;;;;4.90;4.43;;;10.00;40.00;;;;;;5078997;28;21000;-50
2021/03/06 08:49:24;;;;;;;4.37;3.97;;;10.10;39.60;;;;;;5089816;28;20664;-51
2021/03/06 08:51:50;;;;;;;4.67;4.27;;;10.20;39.20;;;;;;5084768;28;20612;-52
2021/03/06 08:54:17;;;;;;;6.73;4.90;;;10.40;38.80;;;;;;5082221;28;20656;-52
2021/03/06 08:56:44;;;;;;;5.97;4.33;;;10.40;38.50;;;;;;5089911;28;20632;-51
2021/03/06 08:59:11;;;;;;;5.90;4.60;;;10.30;38.20;;;;;;5089260;28;20990;-50
2021/03/06 09:01:39;;;;;;;6.50;5.90;;;10.20;38.10;;;;;;5090580;28;20620;-52
2021/03/06 09:04:06;;;;;;;4.97;4.17;;;10.00;37.80;;;;;;5089957;28;20660;-52
2021/03/06 09:06:35;;;;;;;4.63;4.23;;;9.90;38.60;;;;;;5089852;28;20982;-52
2021/03/06 09:09:05;;;;;;;4.80;4.40;;;9.80;38.80;;;;;;5089025;28;21048;-51
2021/03/06 09:11:32;;;;;;;5.40;4.60;;;9.70;38.80;;;;;;5089645;28;21237;-51
2021/03/06 09:13:59;;;;;;;5.87;5.33;;;9.60;39.20;;;;;;5089860;28;21048;-53
2021/03/06 09:16:26;;;;;;;5.00;4.47;;;9.50;39.10;;;;;;5088729;28;20628;-51
2021/03/06 09:19:13;;;;;;;4.90;4.50;;;9.40;39.00;;;;;;5089488;28;20616;-54
2021/03/06 09:22:01;;;;;;;5.93;4.90;;;9.30;39.30;;;;;;5090754;28;20596;-55
2021/03/06 09:24:43;;;;;;;6.13;4.97;;;9.20;39.30;;;;;;5088061;28;21236;-53
2021/03/06 09:27:10;;;;;;;6.03;4.30;;;9.10;39.20;;;;;;5089975;28;20948;-53
2021/03/06 09:29:37;;;;;;;6.40;5.77;;;9.10;39.40;;;;;;5089141;28;20694;-53
2021/03/06 09:32:04;;;;;;;4.43;4.03;;;9.10;39.40;;;;;;5089428;28;20627;-53
2021/03/06 09:34:32;;;;;;;5.37;4.80;;;9.00;39.60;;;;;;5089517;28;20682;-52
2021/03/06 09:36:59;;;;;;;5.33;4.83;;;9.00;39.80;;;;;;5087458;28;20669;-52
2021/03/06 09:39:26;;;;;;;4.90;4.40;;;9.10;39.60;;;;;;5089778;28;20693;-52
2021/03/06 09:41:52;;;;;;;6.53;4.90;;;9.20;39.40;;;;;;5089693;28;20708;-52
2021/03/06 09:44:19;;;;;;;6.17;4.63;;;9.20;38.80;;;;;;5092742;28;21282;-53
2021/03/06 09:46:46;;;;;;;5.93;5.03;;;9.30;38.90;;;;;;5091392;28;20628;-53
2021/03/06 09:49:14;;;;;;;4.60;3.43;;;9.40;38.70;;;;;;5092492;28;21275;-53
2021/03/06 09:51:43;;;;;;;4.83;4.30;;;9.50;38.00;;;;;;5092811;28;20685;-53
2021/03/06 09:54:10;;;;;;;6.93;4.50;;;9.60;38.40;;;;;;5093487;28;20689;-53
2021/03/06 09:56:46;;;;;;;6.60;6.00;;;9.60;38.20;;;;;;5092696;28;20793;-53
2021/03/06 09:59:12;;;;;;;6.33;3.70;;;9.70;38.30;;;;;;5072237;28;20609;-53
2021/03/06 10:01:39;;;;;;;5.63;3.57;;;9.90;37.60;;;;;;5079849;28;20628;-52
2021/03/06 10:04:12;;;;;;;6.63;4.00;;;10.10;36.50;;;;;;5092625;28;20655;-52
2021/03/06 10:06:39;;;;;;;6.97;4.90;;;10.10;35.90;;;;;;5092846;28;21188;-52
2021/03/06 10:09:08;;;;;;;6.57;5.50;;;10.10;35.80;;;;;;5092320;28;20732;-52
2021/03/06 10:11:36;;;;;;;5.50;4.60;;;10.10;35.80;;;;;;5092293;28;21197;-52
2021/03/06 10:14:03;;;;;;;3.80;3.10;;;10.10;34.90;;;;;;5092188;28;20692;-52
2021/03/06 10:16:41;;;;;;;3.10;2.80;;;10.20;34.60;;;;;;5092460;28;20619;-51
2021/03/06 10:19:08;;;;;;;2.33;2.20;;;10.20;34.90;;;;;;5092193;28;21222;-51
2021/03/06 10:21:35;;;;;;;5.37;4.93;;;10.30;35.00;;;;;;5092204;28;21220;-52
2021/03/06 10:24:02;;;;;;;5.37;4.67;;;10.50;34.60;;;;;;5087851;28;20681;-52
2021/03/06 10:26:30;;;;;;;6.50;6.00;;;10.80;33.70;;;;;;5084512;28;20677;-52
2021/03/06 10:28:57;;;;;;;6.03;5.60;;;11.30;34.00;;;;;;5092370;28;20651;-52
2021/03/06 10:31:34;;;;;;;7.57;5.00;;;11.90;33.40;;;;;;5079177;28;20655;-52
2021/03/06 10:34:14;;;;;;;5.70;5.10;;;12.60;32.30;;;;;;5075242;28;20660;-52
2021/03/06 10:36:41;;;;;;;6.57;4.27;;;12.90;31.00;;;;;;5076666;28;20624;-52
2021/03/06 10:39:12;;;;;;;5.20;4.70;;;13.00;30.40;;;;;;5092139;28;20624;-53
2021/03/06 10:41:40;;;;;;;5.60;5.20;;;13.10;31.20;;;;;;5091700;28;20713;-53
2021/03/06 10:44:07;;;;;;;5.17;4.67;;;13.20;30.70;;;;;;5092240;28;20652;-52
2021/03/06 10:46:35;;;;;;;4.27;3.70;;;13.20;29.80;;;;;;5089984;28;20643;-52
2021/03/06 10:49:02;;;;;;;7.87;7.27;;;13.10;29.20;;;;;;5084634;28;20653;-52
2021/03/06 10:51:41;;;;;;;4.70;4.50;;;12.80;29.70;;;;;;5087608;28;20954;-52
2021/03/06 10:54:08;;;;;;;4.23;3.40;;;12.90;29.90;;;;;;5091568;28;21052;-52
2021/03/06 10:56:35;;;;;;;3.77;3.47;;;13.10;29.50;;;;;;5091347;28;20632;-51
2021/03/06 10:59:02;;;;;;;7.03;6.53;;;13.20;29.30;;;;;;5091575;28;20616;-52
2021/03/06 11:01:32;;;;;;;8.87;8.37;;;13.30;28.70;;;;;;5091810;28;21018;-52
2021/03/06 11:03:59;;;;;;;4.80;4.40;;;13.70;28.50;;;;;;5089527;28;20645;-52
2021/03/06 11:06:26;;;;;;;5.97;5.47;;;13.90;27.40;;;;;;5082619;28;20609;-52
2021/03/06 11:08:59;;;;;;;3.87;3.47;;;13.60;26.90;;;;;;5071380;28;20653;-53
2021/03/06 11:11:26;;;;;;;4.03;3.00;;;13.40;27.20;;;;;;5086266;28;21245;-54
2021/03/06 11:13:53;;;;;;;2.97;2.47;;;13.10;27.10;;;;;;5091162;28;21181;-53
2021/03/06 11:16:36;;;;;;;4.07;3.57;;;12.80;27.00;;;;;;5091218;28;20620;-53
2021/03/06 11:19:03;;;;;;;4.30;3.80;;;12.40;27.40;;;;;;5090786;28;20624;-54
2021/03/06 11:21:29;;;;;;;6.13;5.70;;;12.10;27.60;;;;;;5091089;28;20689;-54
2021/03/06 11:23:56;;;;;;;4.73;4.43;;;12.20;28.40;;;;;;5090230;28;20648;-52
2021/03/06 11:26:23;;;;;;;4.17;3.17;;;12.60;28.40;;;;;;5078239;28;20698;-53
2021/03/06 11:28:50;;;;;;;5.20;4.80;;;12.90;27.40;;;;;;5070666;28;20706;-54
2021/03/06 11:31:16;;;;;;;7.80;7.40;;;12.90;27.60;;;;;;5079823;28;20624;-54
2021/03/06 11:33:50;;;;;;;6.83;4.30;;;13.20;27.60;;;;;;5090844;28;20728;-54
2021/03/06 11:36:17;;;;;;;3.77;3.50;;;13.60;26.90;;;;;;5089630;28;20650;-54
2021/03/06 11:38:44;;;;;;;4.70;4.30;;;13.90;26.40;;;;;;5090679;28;21153;-54
2021/03/06 11:41:11;;;;;;;3.77;3.43;;;14.10;26.50;;;;;;5090616;28;20678;-53
2021/03/06 11:43:38;;;;;;;6.87;6.47;;;14.40;26.40;;;;;;5091363;28;20647;-53
2021/03/06 11:46:05;;;;;;;4.43;4.20;;;14.70;26.20;;;;;;5090937;28;20707;-52
2021/03/06 11:48:31;;;;;;;3.97;3.67;;;15.40;25.90;;;;;;5090578;28;21150;-53
2021/03/06 11:50:59;;;;;;;5.07;4.67;;;16.20;25.30;;;;;;5090700;28;20693;-53
2021/03/06 11:53:26;;;;;;;4.30;4.00;;;16.80;25.00;;;;;;5091487;28;20636;-53
2021/03/06 11:55:52;;;;;;;4.03;3.27;;;17.50;24.60;;;;;;5090749;28;20653;-53
2021/03/06 11:58:19;;;;;;;5.20;4.27;;;18.20;24.10;;;;;;5090283;28;21226;-53
2021/03/06 12:00:46;;;;;;;4.03;3.60;;;17.70;23.80;;;;;;5089837;28;20620;-53
2021/03/06 12:03:13;;;;;;;3.40;3.10;;;17.00;24.00;;;;;;5090342;28;20703;-53
2021/03/06 12:05:40;;;;;;;4.20;3.87;;;16.60;24.00;;;;;;5090653;28;20662;-53
2021/03/06 12:08:08;;;;;;;4.47;3.77;;;16.40;24.10;;;;;;5090034;28;20694;-52
2021/03/06 12:10:34;;;;;;;3.70;3.40;;;15.70;24.20;;;;;;5089458;28;20660;-53
2021/03/06 12:13:01;;;;;;;4.27;3.97;;;15.90;25.20;;;;;;5088438;28;20705;-53
2021/03/06 12:15:28;;;;;;;5.27;4.30;;;17.00;24.60;;;;;;5087549;28;21468;-53
2021/03/06 12:17:55;;;;;;;4.60;4.20;;;18.20;24.20;;;;;;5080512;28;20629;-53
2021/03/06 12:20:22;;;;;;;4.20;3.70;;;19.40;23.60;;;;;;5070153;28;21225;-52
2021/03/06 12:22:49;;;;;;;4.33;3.27;;;20.10;23.20;;;;;;5070647;28;20653;-51
2021/03/06 12:25:22;;;;;;;3.50;3.20;;;20.10;22.70;;;;;;5090412;28;20636;-52
2021/03/06 12:27:52;;;;;;;3.20;3.00;;;20.30;22.30;;;;;;5094346;28;20722;-54
2021/03/06 12:30:19;;;;;;;3.10;2.87;;;19.00;22.10;;;;;;5090551;28;20664;-53
2021/03/06 12:32:47;;;;;;;3.17;2.97;;;17.90;22.40;;;;;;5090163;28;21031;-54
2021/03/06 12:35:14;;;;;;;3.70;3.20;;;17.00;23.00;;;;;;5090415;28;21195;-54
2021/03/06 12:37:41;;;;;;;4.10;3.70;;;16.60;23.50;;;;;;5090153;28;20667;-53
2021/03/06 12:40:08;;;;;;;3.30;3.03;;;17.00;23.80;;;;;;5086301;28;20739;-53
2021/03/06 12:42:36;;;;;;;3.47;3.17;;;16.90;23.10;;;;;;5084925;28;20620;-52
2021/03/06 12:45:03;;;;;;;3.17;2.97;;;16.70;23.20;;;;;;5090041;28;21176;-52
2021/03/06 12:47:30;;;;;;;3.07;2.77;;;16.60;23.40;;;;;;5087426;28;20628;-53
2021/03/06 12:49:56;;;;;;;3.10;2.80;;;16.40;23.40;;;;;;5090082;28;20725;-53
2021/03/06 12:52:23;;;;;;;2.67;2.47;;;16.30;22.80;;;;;;5089358;28;20679;-52
2021/03/06 12:54:50;;;;;;;2.80;2.60;;;16.20;23.10;;;;;;5089600;28;21032;-52
2021/03/06 12:57:17;;;;;;;3.67;3.23;;;16.10;22.90;;;;;;5087390;28;20646;-52
2021/03/06 12:59:44;;;;;;;3.57;2.90;;;15.90;22.90;;;;;;5072118;28;21237;-52